sensor_id;sensor_type;location;lat;lon;timestamp;temperature;humidity
7046;DHT22;3564;53.326;10.356;2022-11-23T00:01:55;5.80;99.90
7046;DHT22;3564;53.326;10.356;2022-11-23T00:04:20;5.80;99.90
7046;DHT22;3564;53.326;10.356;2022-11-23T00:06:48;5.90;99.90
7046;DHT22;3564;53.326;10.356;2022-11-23T00:09:13;5.90;99.90
7046;DHT22;3564;53.326;10.356;2022-11-23T00:11:39;5.90;99.90
7046;DHT22;3564;53.326;10.356;2022-11-23T00:14:04;5.90;99.90
7046;DHT22;3564;53.326;10.356;2022-11-23T00:16:30;5.90;99.90
7046;DHT22;3564;53.326;10.356;2022-11-23T00:18:58;5.90;99.90
7046;DHT22;3564;53.326;10.356;2022-11-23T00:21:25;5.90;99.90
7046;DHT22;3564;53.326;10.356;2022-11-23T00:23:51;5.90;99.90
7046;DHT22;3564;53.326;10.356;2022-11-23T00:26:18;5.90;99.90
7046;DHT22;3564;53.326;10.356;2022-11-23T00:28:44;5.90;99.90
7046;DHT22;3564;53.326;10.356;2022-11-23T00:31:12;6.00;99.90
7046;DHT22;3564;53.326;10.356;2022-11-23T00:33:38;5.90;99.90
7046;DHT22;3564;53.326;10.356;2022-11-23T00:36:13;6.00;99.90
7046;DHT22;3564;53.326;10.356;2022-11-23T00:38:39;6.00;99.90
7046;DHT22;3564;53.326;10.356;2022-11-23T00:41:08;6.00;99.90
7046;DHT22;3564;53.326;10.356;2022-11-23T00:43:34;6.00;99.90
7046;DHT22;3564;53.326;10.356;2022-11-23T00:48:45;6.00;99.90
7046;DHT22;3564;53.326;10.356;2022-11-23T00:51:14;6.00;99.90
7046;DHT22;3564;53.326;10.356;2022-11-23T00:53:40;6.10;99.90
7046;DHT22;3564;53.326;10.356;2022-11-23T00:56:06;6.10;99.90
7046;DHT22;3564;53.326;10.356;2022-11-23T00:58:33;6.10;99.90
7046;DHT22;3564;53.326;10.356;2022-11-23T01:01:08;6.10;99.90
7046;DHT22;3564;53.326;10.356;2022-11-23T01:03:35;6.10;99.90
7046;DHT22;3564;53.326;10.356;2022-11-23T01:06:10;6.10;99.90
7046;DHT22;3564;53.326;10.356;2022-11-23T01:08:37;6.10;99.90
7046;DHT22;3564;53.326;10.356;2022-11-23T01:11:05;6.10;99.90
7046;DHT22;3564;53.326;10.356;2022-11-23T01:13:32;6.10;99.90
7046;DHT22;3564;53.326;10.356;2022-11-23T01:15:58;6.10;99.90
7046;DHT22;3564;53.326;10.356;2022-11-23T01:18:24;6.20;99.90
7046;DHT22;3564;53.326;10.356;2022-11-23T01:20:50;6.20;99.90
7046;DHT22;3564;53.326;10.356;2022-11-23T01:23:16;6.20;99.90
7046;DHT22;3564;53.326;10.356;2022-11-23T01:25:42;6.20;99.90
7046;DHT22;3564;53.326;10.356;2022-11-23T01:28:08;6.20;99.90
7046;DHT22;3564;53.326;10.356;2022-11-23T01:30:33;6.20;99.90
7046;DHT22;3564;53.326;10.356;2022-11-23T01:33:02;6.20;99.90
7046;DHT22;3564;53.326;10.356;2022-11-23T01:35:28;6.20;99.90
7046;DHT22;3564;53.326;10.356;2022-11-23T01:37:54;6.20;99.90
7046;DHT22;3564;53.326;10.356;2022-11-23T01:40:19;6.30;99.90
7046;DHT22;3564;53.326;10.356;2022-11-23T01:42:55;6.30;99.90
7046;DHT22;3564;53.326;10.356;2022-11-23T01:45:37;6.30;99.90
7046;DHT22;3564;53.326;10.356;2022-11-23T01:48:12;6.30;99.90
7046;DHT22;3564;53.326;10.356;2022-11-23T01:50:55;6.30;99.90
7046;DHT22;3564;53.326;10.356;2022-11-23T01:53:21;6.30;99.90
7046;DHT22;3564;53.326;10.356;2022-11-23T01:55:47;6.30;99.90
7046;DHT22;3564;53.326;10.356;2022-11-23T01:58:17;6.30;99.90
7046;DHT22;3564;53.326;10.356;2022-11-23T02:00:43;6.30;99.90
7046;DHT22;3564;53.326;10.356;2022-11-23T02:03:10;6.30;99.90
7046;DHT22;3564;53.326;10.356;2022-11-23T02:05:45;6.30;99.90
7046;DHT22;3564;53.326;10.356;2022-11-23T02:08:14;6.30;99.90
7046;DHT22;3564;53.326;10.356;2022-11-23T02:10:40;6.30;99.90
7046;DHT22;3564;53.326;10.356;2022-11-23T02:13:10;6.30;99.90
7046;DHT22;3564;53.326;10.356;2022-11-23T02:15:37;6.30;99.90
7046;DHT22;3564;53.326;10.356;2022-11-23T02:18:07;6.40;99.90
7046;DHT22;3564;53.326;10.356;2022-11-23T02:20:34;6.40;99.90
7046;DHT22;3564;53.326;10.356;2022-11-23T02:28:22;6.40;99.90
7046;DHT22;3564;53.326;10.356;2022-11-23T02:30:50;6.40;99.90
7046;DHT22;3564;53.326;10.356;2022-11-23T02:33:17;6.40;99.90
7046;DHT22;3564;53.326;10.356;2022-11-23T02:38:54;6.40;99.90
7046;DHT22;3564;53.326;10.356;2022-11-23T02:41:20;6.50;99.90
7046;DHT22;3564;53.326;10.356;2022-11-23T02:43:50;6.40;99.90
7046;DHT22;3564;53.326;10.356;2022-11-23T02:46:17;6.50;99.90
7046;DHT22;3564;53.326;10.356;2022-11-23T02:48:43;6.50;99.90
7046;DHT22;3564;53.326;10.356;2022-11-23T02:51:08;6.50;99.90
7046;DHT22;3564;53.326;10.356;2022-11-23T02:53:34;6.50;99.90
7046;DHT22;3564;53.326;10.356;2022-11-23T02:55:59;6.50;99.90
7046;DHT22;3564;53.326;10.356;2022-11-23T02:58:25;6.60;99.90
7046;DHT22;3564;53.326;10.356;2022-11-23T03:00:50;6.60;99.90
7046;DHT22;3564;53.326;10.356;2022-11-23T03:03:16;6.60;99.90
7046;DHT22;3564;53.326;10.356;2022-11-23T03:05:41;6.60;99.90
7046;DHT22;3564;53.326;10.356;2022-11-23T03:08:10;6.60;99.90
7046;DHT22;3564;53.326;10.356;2022-11-23T03:10:35;6.60;99.90
7046;DHT22;3564;53.326;10.356;2022-11-23T03:13:01;6.70;99.90
7046;DHT22;3564;53.326;10.356;2022-11-23T03:15:26;6.70;99.90
7046;DHT22;3564;53.326;10.356;2022-11-23T03:17:52;6.70;99.90
7046;DHT22;3564;53.326;10.356;2022-11-23T03:20:20;6.70;99.90
7046;DHT22;3564;53.326;10.356;2022-11-23T03:22:46;6.70;99.90
7046;DHT22;3564;53.326;10.356;2022-11-23T03:25:11;6.70;99.90
7046;DHT22;3564;53.326;10.356;2022-11-23T03:27:37;6.70;99.90
7046;DHT22;3564;53.326;10.356;2022-11-23T03:30:04;6.80;99.90
7046;DHT22;3564;53.326;10.356;2022-11-23T03:32:29;6.80;99.90
7046;DHT22;3564;53.326;10.356;2022-11-23T03:34:55;6.80;99.90
7046;DHT22;3564;53.326;10.356;2022-11-23T03:37:20;6.80;99.90
7046;DHT22;3564;53.326;10.356;2022-11-23T03:39:46;6.80;99.90
7046;DHT22;3564;53.326;10.356;2022-11-23T03:42:12;6.80;99.90
7046;DHT22;3564;53.326;10.356;2022-11-23T03:44:37;6.80;99.90
7046;DHT22;3564;53.326;10.356;2022-11-23T03:47:03;6.80;99.90
7046;DHT22;3564;53.326;10.356;2022-11-23T03:49:28;6.80;99.90
7046;DHT22;3564;53.326;10.356;2022-11-23T03:51:54;6.80;99.90
7046;DHT22;3564;53.326;10.356;2022-11-23T03:54:19;6.80;99.90
7046;DHT22;3564;53.326;10.356;2022-11-23T03:56:45;6.80;99.90
7046;DHT22;3564;53.326;10.356;2022-11-23T03:59:10;6.80;99.90
7046;DHT22;3564;53.326;10.356;2022-11-23T04:01:36;6.80;99.90
7046;DHT22;3564;53.326;10.356;2022-11-23T04:04:01;6.80;99.90
7046;DHT22;3564;53.326;10.356;2022-11-23T04:06:27;6.90;99.90
7046;DHT22;3564;53.326;10.356;2022-11-23T04:08:53;6.80;99.90
7046;DHT22;3564;53.326;10.356;2022-11-23T04:11:18;6.90;99.90
7046;DHT22;3564;53.326;10.356;2022-11-23T04:13:45;6.90;99.90
7046;DHT22;3564;53.326;10.356;2022-11-23T04:16:11;6.90;99.90
7046;DHT22;3564;53.326;10.356;2022-11-23T04:18:36;6.90;99.90
7046;DHT22;3564;53.326;10.356;2022-11-23T04:21:02;6.90;99.90
7046;DHT22;3564;53.326;10.356;2022-11-23T04:23:28;6.90;99.90
7046;DHT22;3564;53.326;10.356;2022-11-23T04:25:53;6.90;99.90
7046;DHT22;3564;53.326;10.356;2022-11-23T04:28:19;6.90;99.90
7046;DHT22;3564;53.326;10.356;2022-11-23T04:30:44;6.90;99.90
7046;DHT22;3564;53.326;10.356;2022-11-23T04:33:10;6.90;99.90
7046;DHT22;3564;53.326;10.356;2022-11-23T04:35:35;6.90;99.90
7046;DHT22;3564;53.326;10.356;2022-11-23T04:38:01;6.90;99.90
7046;DHT22;3564;53.326;10.356;2022-11-23T04:40:27;6.90;99.90
7046;DHT22;3564;53.326;10.356;2022-11-23T04:42:57;6.90;99.90
7046;DHT22;3564;53.326;10.356;2022-11-23T04:45:23;6.90;99.90
7046;DHT22;3564;53.326;10.356;2022-11-23T04:47:48;7.00;99.90
7046;DHT22;3564;53.326;10.356;2022-11-23T04:50:15;7.00;99.90
7046;DHT22;3564;53.326;10.356;2022-11-23T04:52:40;7.00;99.90
7046;DHT22;3564;53.326;10.356;2022-11-23T04:55:06;7.00;99.90
7046;DHT22;3564;53.326;10.356;2022-11-23T04:57:32;7.10;99.90
7046;DHT22;3564;53.326;10.356;2022-11-23T04:59:57;7.10;99.90
7046;DHT22;3564;53.326;10.356;2022-11-23T05:02:23;7.10;99.90
7046;DHT22;3564;53.326;10.356;2022-11-23T05:04:50;7.10;99.90
7046;DHT22;3564;53.326;10.356;2022-11-23T05:07:16;7.20;99.90
7046;DHT22;3564;53.326;10.356;2022-11-23T05:09:42;7.20;99.90
7046;DHT22;3564;53.326;10.356;2022-11-23T05:12:08;7.20;99.90
7046;DHT22;3564;53.326;10.356;2022-11-23T05:14:34;7.20;99.90
7046;DHT22;3564;53.326;10.356;2022-11-23T05:16:59;7.20;99.90
7046;DHT22;3564;53.326;10.356;2022-11-23T05:19:25;7.20;99.90
7046;DHT22;3564;53.326;10.356;2022-11-23T05:21:50;7.20;99.90
7046;DHT22;3564;53.326;10.356;2022-11-23T05:24:16;7.20;99.90
7046;DHT22;3564;53.326;10.356;2022-11-23T05:26:41;7.30;99.90
7046;DHT22;3564;53.326;10.356;2022-11-23T05:29:07;7.30;99.90
7046;DHT22;3564;53.326;10.356;2022-11-23T05:31:33;7.30;99.90
7046;DHT22;3564;53.326;10.356;2022-11-23T05:33:58;7.30;99.90
7046;DHT22;3564;53.326;10.356;2022-11-23T05:36:24;7.30;99.90
7046;DHT22;3564;53.326;10.356;2022-11-23T05:38:49;7.30;99.90
7046;DHT22;3564;53.326;10.356;2022-11-23T05:41:16;7.40;99.90
7046;DHT22;3564;53.326;10.356;2022-11-23T05:43:41;7.40;99.90
7046;DHT22;3564;53.326;10.356;2022-11-23T05:46:07;7.40;99.90
7046;DHT22;3564;53.326;10.356;2022-11-23T05:48:32;7.40;99.90
7046;DHT22;3564;53.326;10.356;2022-11-23T05:50:58;7.40;99.90
7046;DHT22;3564;53.326;10.356;2022-11-23T05:53:23;7.40;99.90
7046;DHT22;3564;53.326;10.356;2022-11-23T05:55:49;7.40;99.90
7046;DHT22;3564;53.326;10.356;2022-11-23T05:58:14;7.40;99.90
7046;DHT22;3564;53.326;10.356;2022-11-23T06:00:43;7.50;99.90
7046;DHT22;3564;53.326;10.356;2022-11-23T06:03:09;7.50;99.90
7046;DHT22;3564;53.326;10.356;2022-11-23T06:05:34;7.50;99.90
7046;DHT22;3564;53.326;10.356;2022-11-23T06:08:00;7.50;99.90
7046;DHT22;3564;53.326;10.356;2022-11-23T06:10:25;7.50;99.90
7046;DHT22;3564;53.326;10.356;2022-11-23T06:12:51;7.50;99.90
7046;DHT22;3564;53.326;10.356;2022-11-23T06:15:17;7.60;99.90
7046;DHT22;3564;53.326;10.356;2022-11-23T06:17:43;7.50;99.90
7046;DHT22;3564;53.326;10.356;2022-11-23T06:20:09;7.60;99.90
7046;DHT22;3564;53.326;10.356;2022-11-23T06:22:34;7.60;99.90
7046;DHT22;3564;53.326;10.356;2022-11-23T06:25:00;7.60;99.90
7046;DHT22;3564;53.326;10.356;2022-11-23T06:27:26;7.60;99.90
7046;DHT22;3564;53.326;10.356;2022-11-23T06:29:51;7.60;99.90
7046;DHT22;3564;53.326;10.356;2022-11-23T06:32:17;7.60;99.90
7046;DHT22;3564;53.326;10.356;2022-11-23T06:34:42;7.60;99.90
7046;DHT22;3564;53.326;10.356;2022-11-23T06:37:08;7.60;99.90
7046;DHT22;3564;53.326;10.356;2022-11-23T06:39:34;7.60;99.90
7046;DHT22;3564;53.326;10.356;2022-11-23T06:42:00;7.60;99.90
7046;DHT22;3564;53.326;10.356;2022-11-23T06:44:25;7.60;99.90
7046;DHT22;3564;53.326;10.356;2022-11-23T06:46:51;7.60;99.90
7046;DHT22;3564;53.326;10.356;2022-11-23T06:49:16;7.70;99.90
7046;DHT22;3564;53.326;10.356;2022-11-23T06:51:44;7.70;99.90
7046;DHT22;3564;53.326;10.356;2022-11-23T06:54:10;7.70;99.90
7046;DHT22;3564;53.326;10.356;2022-11-23T06:56:36;7.70;99.90
7046;DHT22;3564;53.326;10.356;2022-11-23T06:59:02;7.70;99.90
7046;DHT22;3564;53.326;10.356;2022-11-23T07:01:27;7.70;99.90
7046;DHT22;3564;53.326;10.356;2022-11-23T07:03:53;7.70;99.90
7046;DHT22;3564;53.326;10.356;2022-11-23T07:06:18;7.80;99.90
7046;DHT22;3564;53.326;10.356;2022-11-23T07:08:44;7.70;99.90
7046;DHT22;3564;53.326;10.356;2022-11-23T07:11:10;7.70;99.90
7046;DHT22;3564;53.326;10.356;2022-11-23T07:13:37;7.80;99.90
7046;DHT22;3564;53.326;10.356;2022-11-23T07:16:03;7.80;99.90
7046;DHT22;3564;53.326;10.356;2022-11-23T07:18:29;7.80;99.90
7046;DHT22;3564;53.326;10.356;2022-11-23T07:20:58;7.80;99.90
7046;DHT22;3564;53.326;10.356;2022-11-23T07:23:24;7.80;99.90
7046;DHT22;3564;53.326;10.356;2022-11-23T07:25:51;7.80;99.90
7046;DHT22;3564;53.326;10.356;2022-11-23T07:28:17;7.80;99.90
7046;DHT22;3564;53.326;10.356;2022-11-23T07:30:44;7.80;99.90
7046;DHT22;3564;53.326;10.356;2022-11-23T07:33:11;7.90;99.90
7046;DHT22;3564;53.326;10.356;2022-11-23T07:35:38;7.90;99.90
7046;DHT22;3564;53.326;10.356;2022-11-23T07:38:05;7.90;99.90
7046;DHT22;3564;53.326;10.356;2022-11-23T07:40:36;7.90;99.90
7046;DHT22;3564;53.326;10.356;2022-11-23T07:43:03;7.90;99.90
7046;DHT22;3564;53.326;10.356;2022-11-23T07:45:29;8.00;99.90
7046;DHT22;3564;53.326;10.356;2022-11-23T07:48:03;8.00;99.90
7046;DHT22;3564;53.326;10.356;2022-11-23T07:50:29;8.00;99.90
7046;DHT22;3564;53.326;10.356;2022-11-23T07:52:55;8.00;99.90
7046;DHT22;3564;53.326;10.356;2022-11-23T07:55:22;8.00;99.90
7046;DHT22;3564;53.326;10.356;2022-11-23T07:57:51;8.00;99.90
7046;DHT22;3564;53.326;10.356;2022-11-23T08:00:17;8.00;99.90
7046;DHT22;3564;53.326;10.356;2022-11-23T08:02:44;8.10;99.90
7046;DHT22;3564;53.326;10.356;2022-11-23T08:05:10;8.10;99.90
7046;DHT22;3564;53.326;10.356;2022-11-23T08:07:35;8.10;99.90
7046;DHT22;3564;53.326;10.356;2022-11-23T08:10:01;8.10;99.90
7046;DHT22;3564;53.326;10.356;2022-11-23T08:12:26;8.10;99.90
7046;DHT22;3564;53.326;10.356;2022-11-23T08:14:52;8.10;99.90
7046;DHT22;3564;53.326;10.356;2022-11-23T08:17:18;8.20;99.90
7046;DHT22;3564;53.326;10.356;2022-11-23T08:19:43;8.20;99.90
7046;DHT22;3564;53.326;10.356;2022-11-23T08:22:09;8.20;99.90
7046;DHT22;3564;53.326;10.356;2022-11-23T08:24:34;8.20;99.90
7046;DHT22;3564;53.326;10.356;2022-11-23T08:27:00;8.20;99.90
7046;DHT22;3564;53.326;10.356;2022-11-23T08:29:25;8.20;99.90
7046;DHT22;3564;53.326;10.356;2022-11-23T08:31:51;8.20;99.90
7046;DHT22;3564;53.326;10.356;2022-11-23T08:34:16;8.20;99.90
7046;DHT22;3564;53.326;10.356;2022-11-23T08:36:43;8.20;99.90
7046;DHT22;3564;53.326;10.356;2022-11-23T08:39:09;8.20;99.90
7046;DHT22;3564;53.326;10.356;2022-11-23T08:41:36;8.20;99.90
7046;DHT22;3564;53.326;10.356;2022-11-23T08:44:03;8.30;99.90
7046;DHT22;3564;53.326;10.356;2022-11-23T08:46:29;8.30;99.90
7046;DHT22;3564;53.326;10.356;2022-11-23T08:48:54;8.30;99.90
7046;DHT22;3564;53.326;10.356;2022-11-23T08:51:20;8.40;99.90
7046;DHT22;3564;53.326;10.356;2022-11-23T08:53:48;8.40;99.90
7046;DHT22;3564;53.326;10.356;2022-11-23T08:56:14;8.40;99.90
7046;DHT22;3564;53.326;10.356;2022-11-23T08:58:39;8.50;99.90
7046;DHT22;3564;53.326;10.356;2022-11-23T09:01:10;8.50;99.90
7046;DHT22;3564;53.326;10.356;2022-11-23T09:03:35;8.50;99.90
7046;DHT22;3564;53.326;10.356;2022-11-23T09:06:01;8.50;99.90
7046;DHT22;3564;53.326;10.356;2022-11-23T09:08:28;8.60;99.90
7046;DHT22;3564;53.326;10.356;2022-11-23T09:10:53;8.60;99.90
7046;DHT22;3564;53.326;10.356;2022-11-23T09:13:23;8.60;99.90
7046;DHT22;3564;53.326;10.356;2022-11-23T09:15:48;8.70;99.90
7046;DHT22;3564;53.326;10.356;2022-11-23T09:18:16;8.70;99.90
7046;DHT22;3564;53.326;10.356;2022-11-23T09:20:42;8.70;99.90
7046;DHT22;3564;53.326;10.356;2022-11-23T09:23:08;8.80;99.90
7046;DHT22;3564;53.326;10.356;2022-11-23T09:25:33;8.80;99.90
7046;DHT22;3564;53.326;10.356;2022-11-23T09:27:59;8.80;99.90
7046;DHT22;3564;53.326;10.356;2022-11-23T09:30:25;8.90;99.90
7046;DHT22;3564;53.326;10.356;2022-11-23T09:32:51;8.90;99.90
7046;DHT22;3564;53.326;10.356;2022-11-23T09:35:16;8.90;99.90
7046;DHT22;3564;53.326;10.356;2022-11-23T09:37:42;8.90;99.90
7046;DHT22;3564;53.326;10.356;2022-11-23T09:40:14;9.00;99.90
7046;DHT22;3564;53.326;10.356;2022-11-23T09:45:50;9.00;99.90
7046;DHT22;3564;53.326;10.356;2022-11-23T09:51:36;9.00;99.90
7046;DHT22;3564;53.326;10.356;2022-11-23T09:53:41;9.00;99.90
7046;DHT22;3564;53.326;10.356;2022-11-23T09:56:31;9.10;99.90
7046;DHT22;3564;53.326;10.356;2022-11-23T09:59:02;9.10;99.90
7046;DHT22;3564;53.326;10.356;2022-11-23T10:01:28;9.10;99.90
7046;DHT22;3564;53.326;10.356;2022-11-23T10:03:57;9.20;99.90
7046;DHT22;3564;53.326;10.356;2022-11-23T10:06:30;9.30;99.90
7046;DHT22;3564;53.326;10.356;2022-11-23T10:11:58;9.40;99.90
7046;DHT22;3564;53.326;10.356;2022-11-23T10:20:17;9.50;99.90
7046;DHT22;3564;53.326;10.356;2022-11-23T10:22:59;9.50;99.90
7046;DHT22;3564;53.326;10.356;2022-11-23T10:25:33;9.50;99.90
7046;DHT22;3564;53.326;10.356;2022-11-23T10:28:11;9.60;99.90
7046;DHT22;3564;53.326;10.356;2022-11-23T10:30:37;9.60;99.90
7046;DHT22;3564;53.326;10.356;2022-11-23T10:33:29;9.70;99.90
7046;DHT22;3564;53.326;10.356;2022-11-23T10:35:56;9.70;99.90
7046;DHT22;3564;53.326;10.356;2022-11-23T10:38:25;9.80;99.90
7046;DHT22;3564;53.326;10.356;2022-11-23T10:41:11;9.80;99.90
7046;DHT22;3564;53.326;10.356;2022-11-23T10:43:45;9.90;99.90
7046;DHT22;3564;53.326;10.356;2022-11-23T10:46:22;9.90;99.90
7046;DHT22;3564;53.326;10.356;2022-11-23T10:48:50;10.00;99.90
7046;DHT22;3564;53.326;10.356;2022-11-23T10:51:25;10.00;99.90
7046;DHT22;3564;53.326;10.356;2022-11-23T10:53:55;10.00;99.90
7046;DHT22;3564;53.326;10.356;2022-11-23T10:56:21;10.10;99.90
7046;DHT22;3564;53.326;10.356;2022-11-23T10:58:47;10.10;99.90
7046;DHT22;3564;53.326;10.356;2022-11-23T11:01:15;10.20;99.90
7046;DHT22;3564;53.326;10.356;2022-11-23T11:03:43;10.20;99.90
7046;DHT22;3564;53.326;10.356;2022-11-23T11:06:09;10.20;99.90
7046;DHT22;3564;53.326;10.356;2022-11-23T11:08:50;10.30;99.90
7046;DHT22;3564;53.326;10.356;2022-11-23T11:11:27;10.20;99.90
7046;DHT22;3564;53.326;10.356;2022-11-23T11:14:20;10.20;99.90
7046;DHT22;3564;53.326;10.356;2022-11-23T11:16:53;10.20;99.90
7046;DHT22;3564;53.326;10.356;2022-11-23T11:19:27;10.30;99.90
7046;DHT22;3564;53.326;10.356;2022-11-23T11:21:55;10.30;99.90
7046;DHT22;3564;53.326;10.356;2022-11-23T11:24:44;10.30;99.90
7046;DHT22;3564;53.326;10.356;2022-11-23T11:27:33;10.30;99.90
7046;DHT22;3564;53.326;10.356;2022-11-23T11:30:06;10.30;99.90
7046;DHT22;3564;53.326;10.356;2022-11-23T11:33:03;10.40;99.90
7046;DHT22;3564;53.326;10.356;2022-11-23T11:35:42;10.40;99.90
7046;DHT22;3564;53.326;10.356;2022-11-23T11:38:17;10.40;99.90
7046;DHT22;3564;53.326;10.356;2022-11-23T11:40:49;10.50;99.90
7046;DHT22;3564;53.326;10.356;2022-11-23T11:45:59;10.50;99.90
7046;DHT22;3564;53.326;10.356;2022-11-23T11:48:33;10.50;99.90
7046;DHT22;3564;53.326;10.356;2022-11-23T11:56:40;10.60;99.90
7046;DHT22;3564;53.326;10.356;2022-11-23T12:04:42;10.70;99.90
7046;DHT22;3564;53.326;10.356;2022-11-23T12:07:34;10.70;99.90
7046;DHT22;3564;53.326;10.356;2022-11-23T12:10:20;10.70;99.90
7046;DHT22;3564;53.326;10.356;2022-11-23T12:12:47;10.70;99.90
7046;DHT22;3564;53.326;10.356;2022-11-23T12:15:20;10.80;99.90
7046;DHT22;3564;53.326;10.356;2022-11-23T12:26:16;11.00;99.90
7046;DHT22;3564;53.326;10.356;2022-11-23T12:29:06;11.00;99.90
7046;DHT22;3564;53.326;10.356;2022-11-23T12:40:08;11.00;99.90
7046;DHT22;3564;53.326;10.356;2022-11-23T12:42:44;11.00;99.90
7046;DHT22;3564;53.326;10.356;2022-11-23T12:48:04;11.00;99.90
7046;DHT22;3564;53.326;10.356;2022-11-23T12:56:04;11.10;99.90
7046;DHT22;3564;53.326;10.356;2022-11-23T12:58:32;11.20;99.90
7046;DHT22;3564;53.326;10.356;2022-11-23T13:01:11;11.20;99.90
7046;DHT22;3564;53.326;10.356;2022-11-23T13:12:02;11.30;99.90
7046;DHT22;3564;53.326;10.356;2022-11-23T13:22:30;11.40;99.90
7046;DHT22;3564;53.326;10.356;2022-11-23T13:28:04;11.40;99.90
7046;DHT22;3564;53.326;10.356;2022-11-23T13:30:37;11.40;99.90
7046;DHT22;3564;53.326;10.356;2022-11-23T13:40:42;11.50;99.90
7046;DHT22;3564;53.326;10.356;2022-11-23T13:43:21;11.50;99.90
7046;DHT22;3564;53.326;10.356;2022-11-23T13:46:20;11.60;99.90
7046;DHT22;3564;53.326;10.356;2022-11-23T13:48:56;11.60;99.90
7046;DHT22;3564;53.326;10.356;2022-11-23T13:51:30;11.60;99.90
7046;DHT22;3564;53.326;10.356;2022-11-23T13:54:18;11.60;99.90
7046;DHT22;3564;53.326;10.356;2022-11-23T13:56:45;11.60;99.90
7046;DHT22;3564;53.326;10.356;2022-11-23T13:59:26;11.60;99.90
7046;DHT22;3564;53.326;10.356;2022-11-23T14:12:13;11.70;99.90
7046;DHT22;3564;53.326;10.356;2022-11-23T14:14:53;11.70;99.90
7046;DHT22;3564;53.326;10.356;2022-11-23T14:37:57;12.00;99.90
7046;DHT22;3564;53.326;10.356;2022-11-23T14:43:16;12.00;99.90
7046;DHT22;3564;53.326;10.356;2022-11-23T14:45:44;11.90;99.90
7046;DHT22;3564;53.326;10.356;2022-11-23T14:48:31;11.90;99.90
7046;DHT22;3564;53.326;10.356;2022-11-23T14:51:03;11.90;99.90
7046;DHT22;3564;53.326;10.356;2022-11-23T14:53:33;11.80;99.90
7046;DHT22;3564;53.326;10.356;2022-11-23T14:56:01;11.80;99.90
7046;DHT22;3564;53.326;10.356;2022-11-23T14:58:29;11.70;99.90
7046;DHT22;3564;53.326;10.356;2022-11-23T15:00:59;11.70;99.90
7046;DHT22;3564;53.326;10.356;2022-11-23T15:03:27;11.70;99.90
7046;DHT22;3564;53.326;10.356;2022-11-23T15:06:21;11.60;99.90
7046;DHT22;3564;53.326;10.356;2022-11-23T15:09:15;11.60;99.90
7046;DHT22;3564;53.326;10.356;2022-11-23T15:11:43;11.50;99.90
7046;DHT22;3564;53.326;10.356;2022-11-23T15:14:25;11.50;99.90
7046;DHT22;3564;53.326;10.356;2022-11-23T15:16:51;11.40;99.90
7046;DHT22;3564;53.326;10.356;2022-11-23T15:19:18;11.40;99.90
7046;DHT22;3564;53.326;10.356;2022-11-23T15:21:44;11.30;99.90
7046;DHT22;3564;53.326;10.356;2022-11-23T15:24:21;11.30;99.90
7046;DHT22;3564;53.326;10.356;2022-11-23T15:26:47;11.20;99.90
7046;DHT22;3564;53.326;10.356;2022-11-23T15:29:33;11.20;99.90
7046;DHT22;3564;53.326;10.356;2022-11-23T15:31:59;11.20;99.90
7046;DHT22;3564;53.326;10.356;2022-11-23T15:34:25;11.10;99.90
7046;DHT22;3564;53.326;10.356;2022-11-23T15:36:51;11.00;99.90
7046;DHT22;3564;53.326;10.356;2022-11-23T15:39:18;11.00;99.90
7046;DHT22;3564;53.326;10.356;2022-11-23T15:41:45;10.90;99.90
7046;DHT22;3564;53.326;10.356;2022-11-23T15:44:20;10.90;99.90
7046;DHT22;3564;53.326;10.356;2022-11-23T15:46:48;10.80;99.90
7046;DHT22;3564;53.326;10.356;2022-11-23T15:49:15;10.70;99.90
7046;DHT22;3564;53.326;10.356;2022-11-23T15:51:43;10.70;99.90
7046;DHT22;3564;53.326;10.356;2022-11-23T15:54:24;10.60;99.90
7046;DHT22;3564;53.326;10.356;2022-11-23T15:56:52;10.60;99.90
7046;DHT22;3564;53.326;10.356;2022-11-23T15:59:38;10.50;99.90
7046;DHT22;3564;53.326;10.356;2022-11-23T16:02:21;10.50;99.90
7046;DHT22;3564;53.326;10.356;2022-11-23T16:04:48;10.40;99.90
7046;DHT22;3564;53.326;10.356;2022-11-23T16:07:28;10.40;99.90
7046;DHT22;3564;53.326;10.356;2022-11-23T16:12:47;10.20;99.90
7046;DHT22;3564;53.326;10.356;2022-11-23T16:18:00;10.10;99.90
7046;DHT22;3564;53.326;10.356;2022-11-23T16:20:27;10.10;99.90
7046;DHT22;3564;53.326;10.356;2022-11-23T16:22:54;10.00;99.90
7046;DHT22;3564;53.326;10.356;2022-11-23T16:25:29;10.00;99.90
7046;DHT22;3564;53.326;10.356;2022-11-23T16:28:01;9.90;99.90
7046;DHT22;3564;53.326;10.356;2022-11-23T16:30:35;9.90;99.90
7046;DHT22;3564;53.326;10.356;2022-11-23T16:33:02;9.80;99.90
7046;DHT22;3564;53.326;10.356;2022-11-23T16:35:27;9.80;99.90
7046;DHT22;3564;53.326;10.356;2022-11-23T16:37:56;9.80;99.90
7046;DHT22;3564;53.326;10.356;2022-11-23T16:40:21;9.80;99.90
7046;DHT22;3564;53.326;10.356;2022-11-23T16:42:51;9.70;99.90
7046;DHT22;3564;53.326;10.356;2022-11-23T16:45:17;9.70;99.90
7046;DHT22;3564;53.326;10.356;2022-11-23T16:47:56;9.70;99.90
7046;DHT22;3564;53.326;10.356;2022-11-23T16:50:29;9.70;99.90
7046;DHT22;3564;53.326;10.356;2022-11-23T16:52:56;9.60;99.90
7046;DHT22;3564;53.326;10.356;2022-11-23T16:55:25;9.60;99.90
7046;DHT22;3564;53.326;10.356;2022-11-23T16:57:50;9.60;99.90
7046;DHT22;3564;53.326;10.356;2022-11-23T17:00:21;9.60;99.90
7046;DHT22;3564;53.326;10.356;2022-11-23T17:02:47;9.60;99.90
7046;DHT22;3564;53.326;10.356;2022-11-23T17:05:17;9.60;99.90
7046;DHT22;3564;53.326;10.356;2022-11-23T17:07:44;9.50;99.90
7046;DHT22;3564;53.326;10.356;2022-11-23T17:10:10;9.50;99.90
7046;DHT22;3564;53.326;10.356;2022-11-23T17:12:37;9.50;99.90
7046;DHT22;3564;53.326;10.356;2022-11-23T17:15:04;9.50;99.90
7046;DHT22;3564;53.326;10.356;2022-11-23T17:17:30;9.50;99.90
7046;DHT22;3564;53.326;10.356;2022-11-23T17:19:56;9.50;99.90
7046;DHT22;3564;53.326;10.356;2022-11-23T17:22:21;9.40;99.90
7046;DHT22;3564;53.326;10.356;2022-11-23T17:24:48;9.40;99.90
7046;DHT22;3564;53.326;10.356;2022-11-23T17:27:28;9.30;99.90
7046;DHT22;3564;53.326;10.356;2022-11-23T17:29:56;9.30;99.90
7046;DHT22;3564;53.326;10.356;2022-11-23T17:32:23;9.20;99.90
7046;DHT22;3564;53.326;10.356;2022-11-23T17:34:48;9.20;99.90
7046;DHT22;3564;53.326;10.356;2022-11-23T17:37:17;9.20;99.90
7046;DHT22;3564;53.326;10.356;2022-11-23T17:39:45;9.20;99.90
7046;DHT22;3564;53.326;10.356;2022-11-23T17:42:11;9.20;99.90
7046;DHT22;3564;53.326;10.356;2022-11-23T17:44:37;9.10;99.90
7046;DHT22;3564;53.326;10.356;2022-11-23T17:47:03;9.10;99.90
7046;DHT22;3564;53.326;10.356;2022-11-23T17:49:29;9.10;99.90
7046;DHT22;3564;53.326;10.356;2022-11-23T17:51:55;9.00;99.90
7046;DHT22;3564;53.326;10.356;2022-11-23T17:54:22;9.00;99.90
7046;DHT22;3564;53.326;10.356;2022-11-23T17:56:49;8.90;99.90
7046;DHT22;3564;53.326;10.356;2022-11-23T17:59:16;8.90;99.90
7046;DHT22;3564;53.326;10.356;2022-11-23T18:01:42;8.90;99.90
7046;DHT22;3564;53.326;10.356;2022-11-23T18:04:08;8.90;99.90
7046;DHT22;3564;53.326;10.356;2022-11-23T18:06:33;8.80;99.90
7046;DHT22;3564;53.326;10.356;2022-11-23T18:08:59;8.80;99.90
7046;DHT22;3564;53.326;10.356;2022-11-23T18:11:24;8.80;99.90
7046;DHT22;3564;53.326;10.356;2022-11-23T18:13:52;8.70;99.90
7046;DHT22;3564;53.326;10.356;2022-11-23T18:16:20;8.70;99.90
7046;DHT22;3564;53.326;10.356;2022-11-23T18:18:48;8.70;99.90